Time;durP1;ratioP1;P1;durP2;ratioP2;P2;SDS_P1;SDS_P2;PMS_P1;PMS_P2;Temp;Humidity;BMP_temperature;BMP_pressure;BME280_temperature;BME280_humidity;BME280_pressure;Samples;Min_cycle;Max_cycle;Signal;HPM_P1;HPM_P2
2022/04/04 00:01:31;;;;;;;16.70;9.30;;;;;;;-2.76;98.44;95789.00;5095587;28;20044;-73
2022/04/04 00:03:57;;;;;;;16.75;8.35;;;;;;;-2.72;97.77;95778.16;5104990;28;20458;-73
2022/04/04 00:06:22;;;;;;;17.05;8.38;;;;;;;-2.75;98.17;95783.69;5101427;28;20456;-73
2022/04/04 00:08:48;;;;;;;20.33;9.57;;;;;;;-2.75;97.55;95781.09;5077185;28;20113;-73
2022/04/04 00:11:14;;;;;;;18.92;8.90;;;;;;;-2.73;98.12;95775.78;5099801;28;20089;-73
2022/04/04 00:13:39;;;;;;;18.55;8.70;;;;;;;-2.88;98.73;95784.31;5103591;28;20039;-73
2022/04/04 00:16:07;;;;;;;14.32;8.30;;;;;;;-2.82;99.51;95769.91;5107372;28;20044;-73
2022/04/04 00:18:34;;;;;;;15.90;8.23;;;;;;;-2.71;98.92;95771.25;5100327;28;20177;-73
2022/04/04 00:21:00;;;;;;;17.48;7.95;;;;;;;-2.80;97.86;95770.56;5084218;28;20204;-73
2022/04/04 00:23:26;;;;;;;19.83;8.00;;;;;;;-2.86;98.27;95766.09;5089714;28;20047;-73
2022/04/04 00:25:52;;;;;;;16.38;8.00;;;;;;;-2.87;98.75;95756.78;5104431;27;20169;-73
2022/04/04 00:28:17;;;;;;;20.63;7.85;;;;;;;-3.07;99.17;95759.09;5105834;28;20566;-73
2022/04/04 00:30:43;;;;;;;21.75;9.23;;;;;;;-3.00;99.64;95758.22;5091365;28;20048;-73
2022/04/04 00:33:09;;;;;;;19.75;8.73;;;;;;;-3.14;100.00;95753.84;5090793;28;20412;-73
2022/04/04 00:35:35;;;;;;;20.80;9.57;;;;;;;-3.14;100.00;95753.84;5092137;28;20044;-73
2022/04/04 00:38:02;;;;;;;17.88;8.60;;;;;;;-3.08;100.00;95747.19;5082771;28;20063;-73
2022/04/04 00:40:28;;;;;;;15.90;8.48;;;;;;;-3.15;100.00;95747.09;5102614;28;20701;-74
2022/04/04 00:42:54;;;;;;;14.77;8.15;;;;;;;-3.10;99.95;95749.94;5094217;28;20048;-73
2022/04/04 00:45:19;;;;;;;20.27;9.13;;;;;;;-3.15;100.00;95752.25;5105348;28;20428;-74
2022/04/04 00:47:45;;;;;;;20.33;9.45;;;;;;;-3.34;100.00;95744.06;5109153;28;20431;-73
2022/04/04 00:50:11;;;;;;;21.25;9.48;;;;;;;-3.39;100.00;95740.41;5095101;28;20058;-74
2022/04/04 00:52:38;;;;;;;19.80;8.80;;;;;;;-3.42;100.00;95744.16;5089412;28;20462;-74
2022/04/04 00:55:07;;;;;;;19.27;8.98;;;;;;;-3.46;100.00;95734.38;5079241;28;20040;-74
2022/04/04 00:57:33;;;;;;;15.73;8.50;;;;;;;-3.45;100.00;95741.91;5101897;28;20051;-74
2022/04/04 00:59:58;;;;;;;18.13;8.20;;;;;;;-3.48;100.00;95737.13;5095445;28;20624;-74
2022/04/04 01:02:24;;;;;;;15.68;8.13;;;;;;;-3.54;100.00;95732.69;5087078;28;20090;-75
2022/04/04 01:04:49;;;;;;;14.27;8.25;;;;;;;-3.47;100.00;95731.00;5100812;28;20047;-74
2022/04/04 01:07:15;;;;;;;15.88;8.13;;;;;;;-3.56;100.00;95734.63;5101084;28;20797;-73
2022/04/04 01:09:40;;;;;;;15.45;8.18;;;;;;;-3.64;100.00;95727.00;5105207;28;20436;-73
2022/04/04 01:12:08;;;;;;;15.07;7.95;;;;;;;-3.66;100.00;95722.81;5083897;28;20728;-74
2022/04/04 01:14:35;;;;;;;18.90;8.45;;;;;;;-3.68;100.00;95717.06;5098693;28;20560;-74
2022/04/04 01:17:02;;;;;;;16.38;9.02;;;;;;;-3.72;100.00;95723.53;5083132;28;20044;-74
2022/04/04 01:19:27;;;;;;;16.77;8.60;;;;;;;-3.78;100.00;95721.63;5080959;28;20506;-74
2022/04/04 01:21:53;;;;;;;18.67;8.52;;;;;;;-3.83;100.00;95713.66;5100046;28;20040;-74
2022/04/04 01:24:20;;;;;;;19.48;9.48;;;;;;;-3.84;100.00;95714.63;5074306;28;20043;-74
2022/04/04 01:26:49;;;;;;;18.67;8.82;;;;;;;-3.85;100.00;95705.31;5103102;28;20040;-74
2022/04/04 01:29:15;;;;;;;19.35;8.80;;;;;;;-3.92;100.00;95706.97;5106055;28;20454;-74
2022/04/04 01:31:41;;;;;;;16.77;8.27;;;;;;;-3.97;100.00;95709.28;5081698;28;20036;-74
2022/04/04 01:34:06;;;;;;;14.63;7.90;;;;;;;-3.94;100.00;95712.28;5086214;28;20077;-74
2022/04/04 01:36:32;;;;;;;16.58;9.05;;;;;;;-3.98;100.00;95712.81;5089317;28;20047;-74
2022/04/04 01:38:57;;;;;;;15.57;8.68;;;;;;;-4.02;100.00;95714.94;5073500;28;20040;-75
2022/04/04 01:41:23;;;;;;;16.13;8.68;;;;;;;-4.09;100.00;95707.13;5073467;28;20117;-74
2022/04/04 01:43:48;;;;;;;17.60;8.68;;;;;;;-4.10;100.00;95708.06;5080754;28;20040;-74
2022/04/04 01:46:29;;;;;;;16.63;8.10;;;;;;;-4.15;100.00;95710.38;5102081;28;20040;-75
2022/04/04 01:48:57;;;;;;;17.25;9.15;;;;;;;-4.29;100.00;95703.41;5103790;28;20044;-74
2022/04/04 01:51:24;;;;;;;18.55;8.48;;;;;;;-4.26;100.00;95708.22;5098439;28;20032;-74
2022/04/04 01:53:49;;;;;;;16.52;8.80;;;;;;;-4.30;100.00;95696.66;5087098;28;20064;-74
2022/04/04 01:56:15;;;;;;;16.92;8.85;;;;;;;-4.29;100.00;95703.41;5100067;28;20060;-74
2022/04/04 01:58:41;;;;;;;15.70;8.38;;;;;;;-4.41;100.00;95696.09;5089865;28;20040;-74
2022/04/04 02:01:12;;;;;;;16.77;8.23;;;;;;;-4.37;100.00;95702.50;5104666;28;20057;-76
2022/04/04 02:03:38;;;;;;;17.85;8.80;;;;;;;-4.46;100.00;95692.44;5100411;28;20051;-76
2022/04/04 02:06:04;;;;;;;16.42;8.32;;;;;;;-4.48;100.00;95689.22;5100078;28;20044;-76
2022/04/04 02:08:31;;;;;;;20.15;8.52;;;;;;;-4.50;100.00;95686.81;5092163;28;20055;-76
2022/04/04 02:10:57;;;;;;;16.60;8.00;;;;;;;-4.57;100.00;95688.47;5100571;28;20497;-77
2022/04/04 02:13:25;;;;;;;16.73;7.75;;;;;;;-4.62;100.00;95690.78;5090862;28;20044;-76
2022/04/04 02:15:52;;;;;;;18.98;8.55;;;;;;;-4.62;100.00;95688.22;5099324;28;20092;-75
2022/04/04 02:18:18;;;;;;;16.17;8.25;;;;;;;-4.64;100.00;95690.13;5099749;28;20067;-76
2022/04/04 02:20:43;;;;;;;18.90;8.50;;;;;;;-4.70;100.00;95692.41;5100375;28;20044;-76
2022/04/04 02:23:09;;;;;;;16.88;8.18;;;;;;;-4.72;100.00;95689.22;5070414;28;20051;-76
2022/04/04 02:25:34;;;;;;;15.13;8.25;;;;;;;-4.74;100.00;95680.88;5082552;28;20130;-76
2022/04/04 02:28:00;;;;;;;14.35;7.22;;;;;;;-4.71;100.00;95690.81;5084519;28;20040;-75
2022/04/04 02:30:25;;;;;;;19.42;8.05;;;;;;;-4.75;100.00;95684.41;5100825;28;20048;-77
2022/04/04 02:32:51;;;;;;;14.75;7.88;;;;;;;-4.77;100.00;95686.38;5099863;28;20047;-76
2022/04/04 02:35:18;;;;;;;15.38;7.95;;;;;;;-4.84;100.00;95685.44;5098815;28;20032;-76
2022/04/04 02:37:44;;;;;;;16.45;7.95;;;;;;;-4.89;100.00;95685.13;5106218;28;20079;-75
2022/04/04 02:40:10;;;;;;;14.38;7.68;;;;;;;-4.95;100.00;95678.09;5086521;28;20473;-75
2022/04/04 02:42:35;;;;;;;14.95;7.43;;;;;;;-4.96;100.00;95686.78;5109680;28;20047;-75
2022/04/04 02:45:01;;;;;;;16.83;6.88;;;;;;;-5.10;100.00;95681.38;5107821;28;20451;-75
2022/04/04 02:47:27;;;;;;;15.27;7.85;;;;;;;-5.06;100.00;95674.13;5090134;28;20424;-75
2022/04/04 02:49:53;;;;;;;16.05;7.47;;;;;;;-5.16;100.00;95676.91;5098024;28;20103;-74
2022/04/04 02:52:18;;;;;;;16.15;7.22;;;;;;;-5.15;100.00;95678.50;5098975;28;20044;-75
2022/04/04 02:54:44;;;;;;;14.65;7.50;;;;;;;-5.16;100.00;95682.03;5107583;28;20528;-75
2022/04/04 02:57:09;;;;;;;14.65;7.20;;;;;;;-5.23;100.00;95675.97;5090295;28;20069;-75
2022/04/04 02:59:35;;;;;;;14.43;7.38;;;;;;;-5.27;100.00;95675.50;5090587;28;20036;-75
2022/04/04 03:02:00;;;;;;;14.65;7.40;;;;;;;-5.28;100.00;95673.91;5095436;28;20032;-75
2022/04/04 03:04:26;;;;;;;14.70;6.80;;;;;;;-5.32;100.00;95667.50;5103018;27;20047;-75
2022/04/04 03:06:51;;;;;;;15.23;6.63;;;;;;;-5.34;100.00;95663.50;5073114;28;20059;-75
2022/04/04 03:09:16;;;;;;;15.45;6.65;;;;;;;-5.40;100.00;95660.66;5085675;28;20598;-75
2022/04/04 03:11:42;;;;;;;15.15;6.88;;;;;;;-5.43;100.00;95660.97;5101623;28;20511;-75
2022/04/04 03:14:07;;;;;;;12.48;6.70;;;;;;;-5.45;100.00;95657.75;5104544;28;20039;-75
2022/04/04 03:16:33;;;;;;;12.77;7.10;;;;;;;-5.44;100.00;95659.38;5103604;28;20264;-75
2022/04/04 03:18:59;;;;;;;18.15;7.25;;;;;;;-5.46;100.00;95660.50;5089282;28;20486;-74
2022/04/04 03:21:27;;;;;;;12.48;6.80;;;;;;;-5.50;100.00;95660.03;5093497;28;20055;-74
2022/04/04 03:23:54;;;;;;;14.18;7.25;;;;;;;-5.54;100.00;95663.91;5106742;28;20523;-74
2022/04/04 03:26:20;;;;;;;13.77;6.43;;;;;;;-5.58;100.00;95660.06;5098725;28;20036;-74
2022/04/04 03:28:46;;;;;;;14.50;6.30;;;;;;;-5.60;100.00;95659.44;5092752;28;20085;-75
2022/04/04 03:31:12;;;;;;;21.20;7.28;;;;;;;-5.62;100.00;95661.34;5102809;28;20040;-74
2022/04/04 03:33:38;;;;;;;13.95;7.53;;;;;;;-5.63;100.00;95664.88;5084740;28;20043;-74
2022/04/04 03:36:05;;;;;;;14.68;7.15;;;;;;;-5.64;100.00;95661.50;5105319;28;20040;-74
2022/04/04 03:38:30;;;;;;;15.50;7.80;;;;;;;-5.58;100.00;95652.38;5102605;28;20036;-75
2022/04/04 03:40:56;;;;;;;15.68;7.40;;;;;;;-5.60;100.00;95644.03;5099060;28;20122;-75
2022/04/04 03:43:23;;;;;;;13.23;7.05;;;;;;;-5.64;100.00;95669.19;5090760;28;20109;-75
2022/04/04 03:45:48;;;;;;;16.73;7.13;;;;;;;-5.60;100.00;95659.44;5091866;28;20044;-76
2022/04/04 03:48:14;;;;;;;15.43;6.90;;;;;;;-5.60;100.00;95649.19;5103833;28;20100;-76
2022/04/04 03:50:40;;;;;;;15.32;7.43;;;;;;;-5.71;100.00;95652.09;5085394;28;20047;-76
2022/04/04 03:53:06;;;;;;;13.48;6.93;;;;;;;-5.78;100.00;95657.06;5093113;28;21664;-75
2022/04/04 03:55:37;;;;;;;22.27;7.78;;;;;;;-5.83;100.00;95655.00;5107324;28;20067;-75
2022/04/04 03:58:04;;;;;;;17.02;7.32;;;;;;;-5.87;100.00;95653.72;5090150;28;20036;-76
2022/04/04 04:00:30;;;;;;;11.85;6.72;;;;;;;-5.89;100.00;95650.50;5101151;28;20044;-75
2022/04/04 04:02:56;;;;;;;15.90;6.97;;;;;;;-5.93;100.00;95654.38;5104291;28;20567;-76
2022/04/04 04:05:22;;;;;;;17.08;7.72;;;;;;;-5.94;100.00;95658.69;5090196;28;20497;-75
2022/04/04 04:07:48;;;;;;;15.98;7.18;;;;;;;-5.88;100.00;95652.09;5090251;28;20048;-75
2022/04/04 04:10:14;;;;;;;17.05;7.93;;;;;;;-5.86;100.00;95655.31;5103771;28;20771;-75
2022/04/04 04:12:41;;;;;;;18.75;8.05;;;;;;;-5.93;100.00;95654.38;5093639;28;20123;-74
2022/04/04 04:15:13;;;;;;;12.80;6.47;;;;;;;-5.97;100.00;95663.38;5098220;28;20390;-74
2022/04/04 04:17:38;;;;;;;18.48;7.85;;;;;;;-6.01;100.00;95656.97;5106008;28;20040;-73
2022/04/04 04:20:20;;;;;;;16.98;7.60;;;;;;;-6.01;100.00;95664.66;5098131;28;20101;-74
2022/04/04 04:23:05;;;;;;;13.55;6.20;;;;;;;-6.02;100.00;95660.47;5108497;28;20043;-74
2022/04/04 04:25:32;;;;;;;14.00;6.75;;;;;;;-6.03;100.00;95653.75;5082341;28;20188;-74
2022/04/04 04:28:01;;;;;;;14.60;6.60;;;;;;;-6.07;100.00;95652.50;5089732;28;20040;-74
2022/04/04 04:30:28;;;;;;;13.57;7.25;;;;;;;-6.08;100.00;95653.44;5094560;28;20040;-74
2022/04/04 04:32:54;;;;;;;14.02;7.10;;;;;;;-6.04;100.00;95657.28;5108361;28;20048;-74
2022/04/04 04:35:20;;;;;;;16.30;7.05;;;;;;;-6.03;100.00;95653.75;5096486;28;20502;-74
2022/04/04 04:37:46;;;;;;;15.60;6.72;;;;;;;-6.07;100.00;95657.63;5085659;28;20039;-74
2022/04/04 04:40:13;;;;;;;17.00;6.65;;;;;;;-6.11;100.00;95652.00;5106708;28;20040;-73
2022/04/04 04:42:38;;;;;;;16.10;7.07;;;;;;;-6.18;100.00;95656.97;5105223;28;20051;-73
2022/04/04 04:45:05;;;;;;;14.90;6.32;;;;;;;-6.23;100.00;95659.22;5090853;28;20052;-73
2022/04/04 04:47:32;;;;;;;11.93;6.82;;;;;;;-6.22;100.00;95653.16;5090796;28;20036;-74
2022/04/04 04:49:58;;;;;;;15.30;7.07;;;;;;;-6.21;100.00;95652.16;5096179;28;20035;-74
2022/04/04 04:52:25;;;;;;;12.85;7.15;;;;;;;-6.15;100.00;95656.66;5100760;28;20065;-74
2022/04/04 04:54:51;;;;;;;14.93;6.57;;;;;;;-6.18;100.00;95656.16;5091351;28;20078;-74
2022/04/04 04:57:17;;;;;;;21.52;7.22;;;;;;;-6.18;100.00;95662.09;5089221;28;20110;-73
2022/04/04 04:59:42;;;;;;;12.35;6.05;;;;;;;-6.16;100.00;95660.19;5078143;28;20044;-73
2022/04/04 05:02:08;;;;;;;15.75;7.45;;;;;;;-6.11;100.00;95663.03;5092838;28;20456;-74
2022/04/04 05:04:34;;;;;;;15.60;7.22;;;;;;;-6.07;100.00;95667.88;5098596;28;20437;-74
2022/04/04 05:06:59;;;;;;;22.50;7.07;;;;;;;-6.12;100.00;95656.34;5102672;28;20035;-73
2022/04/04 05:09:25;;;;;;;14.88;6.93;;;;;;;-6.14;100.00;95663.38;5106221;28;20647;-74
2022/04/04 05:11:50;;;;;;;16.75;6.90;;;;;;;-6.12;100.00;95661.47;5097596;28;20126;-74
2022/04/04 05:14:16;;;;;;;16.65;7.22;;;;;;;-6.11;100.00;95657.91;5097364;28;20520;-74
2022/04/04 05:16:45;;;;;;;14.38;7.05;;;;;;;-6.11;100.00;95657.91;5108576;28;20042;-74
2022/04/04 05:19:12;;;;;;;17.90;6.55;;;;;;;-6.05;100.00;95653.91;5103788;28;20036;-74
2022/04/04 05:21:38;;;;;;;20.42;6.57;;;;;;;-6.07;100.00;95657.63;5097793;28;20493;-74
2022/04/04 05:24:05;;;;;;;17.60;7.10;;;;;;;-6.01;100.00;95657.75;5102818;28;20043;-74
2022/04/04 05:26:32;;;;;;;16.85;6.95;;;;;;;-5.98;100.00;95656.63;5098859;28;20036;-74
2022/04/04 05:28:57;;;;;;;15.00;6.95;;;;;;;-5.91;100.00;95652.44;5072684;28;20066;-74
2022/04/04 05:31:23;;;;;;;15.73;6.72;;;;;;;-5.88;100.00;95652.09;5089375;28;20068;-74
2022/04/04 05:33:49;;;;;;;14.82;7.50;;;;;;;-5.85;100.00;95656.91;5100678;28;20071;-74
2022/04/04 05:36:14;;;;;;;17.23;8.25;;;;;;;-5.76;100.00;95662.81;5108671;28;20036;-74
2022/04/04 05:38:40;;;;;;;17.48;8.10;;;;;;;-5.63;100.00;95659.72;5121213;28;20043;-74
2022/04/04 05:41:05;;;;;;;16.38;8.43;;;;;;;-5.56;100.00;95655.53;5102480;28;20163;-74
2022/04/04 05:43:31;;;;;;;15.05;7.88;;;;;;;-5.45;100.00;95657.75;5105573;28;20046;-74
2022/04/04 05:45:57;;;;;;;23.00;8.40;;;;;;;-5.40;100.00;95660.66;5095726;28;20040;-75
2022/04/04 05:48:25;;;;;;;18.10;8.75;;;;;;;-5.40;100.00;95659.84;5070873;28;20044;-75
2022/04/04 05:50:51;;;;;;;17.20;8.30;;;;;;;-5.41;100.00;95664.16;5100034;28;20086;-75
2022/04/04 05:53:17;;;;;;;19.52;8.93;;;;;;;-5.20;100.00;95665.41;5102566;28;20043;-75
2022/04/04 05:55:42;;;;;;;18.33;8.48;;;;;;;-4.97;100.00;95664.63;5083732;28;20485;-75
2022/04/04 05:58:08;;;;;;;16.80;7.20;;;;;;;-4.83;100.00;95666.47;5093806;28;20043;-75
2022/04/04 06:00:33;;;;;;;19.00;9.05;;;;;;;-4.72;100.00;95663.53;5097896;28;20040;-72
2022/04/04 06:02:59;;;;;;;16.55;8.25;;;;;;;-4.49;100.00;95667.88;5079712;28;20475;-70
2022/04/04 06:05:24;;;;;;;15.77;8.18;;;;;;;-4.40;100.00;95656.56;5087246;28;20580;-71
2022/04/04 06:07:50;;;;;;;18.98;8.80;;;;;;;-4.37;100.00;95661.38;5092287;28;20052;-74
2022/04/04 06:10:16;;;;;;;22.88;9.02;;;;;;;-4.29;100.00;95667.44;5083704;28;20044;-74
2022/04/04 06:12:43;;;;;;;19.55;8.77;;;;;;;-4.29;100.00;95673.38;5101371;28;20113;-74
2022/04/04 06:15:10;;;;;;;23.05;9.48;;;;;;;-4.08;100.00;95675.31;5103455;28;20063;-74
2022/04/04 06:17:38;;;;;;;22.85;9.20;;;;;;;-3.94;100.00;95670.34;5074873;28;20035;-73
2022/04/04 06:20:05;;;;;;;22.52;10.27;;;;;;;-3.88;100.00;95669.66;5097931;28;20093;-74
2022/04/04 06:22:38;;;;;;;23.50;10.52;;;;;;;-3.71;100.00;95676.25;5092406;28;20097;-74
2022/04/04 06:25:07;;;;;;;26.10;11.00;;;;;;;-3.67;99.70;95677.50;5090157;28;20488;-74
2022/04/04 06:27:33;;;;;;;22.02;10.57;;;;;;;-3.48;99.42;95670.22;5083256;28;20036;-75
2022/04/04 06:29:59;;;;;;;27.13;10.60;;;;;;;-3.34;98.82;95672.00;5095383;28;20509;-74
2022/04/04 06:32:26;;;;;;;20.33;10.50;;;;;;;-3.22;97.44;95676.72;5097037;28;20047;-74
2022/04/04 06:34:52;;;;;;;27.92;10.25;;;;;;;-3.13;97.60;95679.00;5094680;28;20075;-76
2022/04/04 06:37:18;;;;;;;31.67;12.18;;;;;;;-3.04;96.42;95677.13;5100265;28;20052;-75
2022/04/04 06:39:44;;;;;;;24.70;10.52;;;;;;;-2.88;95.14;95677.91;5099857;27;20040;-75
2022/04/04 06:42:09;;;;;;;30.48;12.15;;;;;;;-2.92;95.95;95686.97;5106943;28;20416;-74
2022/04/04 06:44:35;;;;;;;28.27;11.55;;;;;;;-3.01;96.77;95676.78;5074880;28;20104;-75
2022/04/04 06:47:01;;;;;;;31.90;11.77;;;;;;;-2.94;94.14;95671.72;5101354;28;20497;-75
2022/04/04 06:49:27;;;;;;;21.08;9.38;;;;;;;-2.90;87.82;95677.28;5107101;28;20040;-74
2022/04/04 06:51:53;;;;;;;24.90;10.20;;;;;;;-3.02;92.57;95680.31;5092347;28;20035;-75
2022/04/04 06:54:19;;;;;;;22.55;9.25;;;;;;;-2.98;87.46;95671.25;5106788;28;20036;-75
2022/04/04 06:56:46;;;;;;;19.35;8.90;;;;;;;-2.97;88.72;95667.72;5095689;28;20047;-75
2022/04/04 06:59:13;;;;;;;23.45;9.20;;;;;;;-2.70;85.16;95675.75;5093243;28;20058;-76
2022/04/04 07:01:39;;;;;;;22.50;8.52;;;;;;;-2.65;82.54;95670.84;5095800;28;20044;-76
2022/04/04 07:04:05;;;;;;;21.15;8.63;;;;;;;-2.47;83.70;95672.19;5093363;28;20131;-77
2022/04/04 07:06:30;;;;;;;25.73;8.63;;;;;;;-2.49;81.10;95669.03;5102319;28;20066;-76
2022/04/04 07:08:56;;;;;;;22.33;8.20;;;;;;;-2.44;81.41;95671.84;5103435;28;20032;-78
2022/04/04 07:11:22;;;;;;;18.15;7.05;;;;;;;-2.38;76.72;95662.59;5102581;28;20394;-76
2022/04/04 07:13:49;;;;;;;22.73;7.63;;;;;;;-2.35;76.79;95657.84;5091327;28;20050;-76
2022/04/04 07:16:16;;;;;;;24.52;7.35;;;;;;;-2.28;77.85;95661.28;5096724;28;20036;-75
2022/04/04 07:18:42;;;;;;;16.60;7.30;;;;;;;-2.08;73.53;95655.53;5100025;28;20066;-75
2022/04/04 07:21:07;;;;;;;18.67;7.60;;;;;;;-2.06;78.54;95653.53;5088479;28;20048;-77
2022/04/04 07:23:33;;;;;;;18.73;7.68;;;;;;;-2.05;77.41;95654.31;5091993;28;20040;-77
2022/04/04 07:25:58;;;;;;;18.15;7.82;;;;;;;-1.94;75.95;95659.78;5094590;28;20127;-80
2022/04/04 07:28:24;;;;;;;19.20;7.95;;;;;;;-2.07;74.63;95662.25;5104314;27;20050;-80
2022/04/04 07:30:52;;;;;;;17.85;7.70;;;;;;;-2.01;74.25;95661.53;5099571;27;20032;-77
2022/04/04 07:33:21;;;;;;;19.52;8.05;;;;;;;-1.83;73.63;95648.16;5108752;28;20042;-78
2022/04/04 07:35:47;;;;;;;15.50;6.88;;;;;;;-1.70;71.06;95652.59;5085945;28;20055;-77
2022/04/04 07:38:13;;;;;;;13.45;6.20;;;;;;;-1.60;69.27;95653.06;5079535;28;20382;-78
2022/04/04 07:40:39;;;;;;;11.57;5.95;;;;;;;-1.66;68.38;95653.03;5083898;28;20077;-77
2022/04/04 07:43:04;;;;;;;12.68;6.05;;;;;;;-1.28;67.45;95640.56;5086980;28;20047;-77
2022/04/04 07:45:31;;;;;;;17.25;7.13;;;;;;;-1.16;66.03;95642.59;5097210;28;20077;-77
2022/04/04 07:47:58;;;;;;;12.80;5.85;;;;;;;-1.38;64.46;95645.25;5101269;28;20122;-77
2022/04/04 07:50:24;;;;;;;12.75;6.32;;;;;;;-1.57;69.86;95647.56;5086127;28;20681;-77
2022/04/04 07:52:50;;;;;;;13.23;6.00;;;;;;;-1.15;65.71;95651.91;5105061;28;20096;-76
2022/04/04 07:55:18;;;;;;;14.48;5.88;;;;;;;-1.07;65.30;95646.59;5087463;28;20035;-76
2022/04/04 07:57:45;;;;;;;14.18;6.30;;;;;;;-1.12;65.05;95648.94;5104421;28;20036;-76
2022/04/04 08:00:17;;;;;;;17.70;6.47;;;;;;;-1.23;65.06;95643.34;5109051;27;20484;-77
2022/04/04 08:02:44;;;;;;;15.50;6.47;;;;;;;-1.18;65.61;95644.56;5107785;27;20055;-77
2022/04/04 08:05:10;;;;;;;14.55;5.63;;;;;;;-1.07;67.49;95646.59;5106839;28;20040;-75
2022/04/04 08:07:37;;;;;;;8.65;4.82;;;;;;;-0.98;63.14;95645.44;5100473;28;20032;-76
2022/04/04 08:10:04;;;;;;;13.32;6.05;;;;;;;-0.89;63.71;95648.63;5105037;27;20031;-74
2022/04/04 08:12:30;;;;;;;14.85;5.68;;;;;;;-0.94;66.80;95636.31;5101903;28;20114;-75
2022/04/04 08:14:56;;;;;;;12.60;5.95;;;;;;;-1.01;67.34;95635.50;5073681;28;20036;-76
2022/04/04 08:17:22;;;;;;;14.50;5.78;;;;;;;-0.87;65.05;95631.97;5093100;28;20089;-74
2022/04/04 08:19:50;;;;;;;10.25;5.40;;;;;;;-0.72;63.02;95633.59;5071881;28;20047;-75
2022/04/04 08:22:16;;;;;;;10.75;5.55;;;;;;;-0.70;63.96;95621.28;5095691;28;20036;-75
2022/04/04 08:24:42;;;;;;;12.48;5.32;;;;;;;-0.69;63.39;95628.03;5100072;28;20047;-79
2022/04/04 08:27:09;;;;;;;13.60;5.55;;;;;;;-0.64;64.89;95628.25;5105784;28;20100;-77
2022/04/04 08:29:36;;;;;;;14.13;5.72;;;;;;;-0.77;63.72;95631.59;5093647;28;20036;-77
2022/04/04 08:32:01;;;;;;;10.27;4.88;;;;;;;-0.89;63.40;95626.19;5090854;28;20071;-77
2022/04/04 08:34:28;;;;;;;10.05;4.22;;;;;;;-0.43;64.05;95616.16;5072609;28;20075;-77
2022/04/04 08:36:54;;;;;;;12.50;5.13;;;;;;;-0.21;63.73;95617.56;5093964;28;20641;-77
2022/04/04 08:39:20;;;;;;;10.85;5.38;;;;;;;-0.34;65.98;95612.38;5092256;28;20043;-77
2022/04/04 08:41:46;;;;;;;10.90;5.70;;;;;;;-0.40;64.74;95613.19;5094964;28;20485;-77
2022/04/04 08:44:14;;;;;;;10.07;4.57;;;;;;;-0.20;60.62;95615.78;5093971;28;20044;-77
2022/04/04 08:46:41;;;;;;;12.63;5.43;;;;;;;-0.26;65.73;95609.63;5099463;28;20401;-76
2022/04/04 08:49:07;;;;;;;8.60;4.78;;;;;;;-0.14;63.63;95606.41;5099714;28;20036;-77
2022/04/04 08:51:36;;;;;;;10.43;4.93;;;;;;;-0.11;63.50;95603.44;5089756;28;20043;-76
2022/04/04 08:54:03;;;;;;;8.82;4.70;;;;;;;0.03;62.03;95599.88;5086372;28;20145;-76
2022/04/04 08:56:28;;;;;;;9.48;4.88;;;;;;;0.01;63.21;95604.44;5096597;28;20048;-75
2022/04/04 08:58:55;;;;;;;9.05;5.00;;;;;;;0.17;63.83;95601.44;5096599;28;20515;-76
2022/04/04 09:01:23;;;;;;;11.13;5.05;;;;;;;0.32;64.56;95608.19;5087025;28;20047;-75
2022/04/04 09:04:11;;;;;;;8.57;4.00;;;;;;;0.37;63.54;95595.41;5101063;28;20053;-73
2022/04/04 09:06:53;;;;;;;9.07;5.03;;;;;;;0.48;62.63;95594.78;5107733;28;20059;-73
2022/04/04 09:09:40;;;;;;;11.48;4.95;;;;;;;0.51;63.26;95589.19;5087658;28;20091;-72
2022/04/04 09:12:10;;;;;;;10.23;5.50;;;;;;;0.58;64.09;95585.81;5100335;28;20073;-73
2022/04/04 09:14:58;;;;;;;9.68;5.15;;;;;;;0.74;64.41;95590.53;5074690;28;20094;-73
2022/04/04 09:17:30;;;;;;;13.65;4.93;;;;;;;0.82;63.90;95581.72;5082895;28;20059;-73
2022/04/04 09:19:56;;;;;;;13.27;5.40;;;;;;;0.83;63.15;95578.94;5101510;28;20040;-73
2022/04/04 09:22:22;;;;;;;11.88;5.38;;;;;;;0.65;60.46;95578.81;5089032;28;20036;-73
2022/04/04 09:24:56;;;;;;;9.57;4.60;;;;;;;0.74;63.63;95575.00;5071633;28;20054;-72
2022/04/04 09:27:31;;;;;;;13.32;5.70;;;;;;;0.70;61.21;95573.81;5104951;28;20123;-73
2022/04/04 09:29:59;;;;;;;9.23;5.30;;;;;;;0.82;61.48;95567.00;5080491;28;20089;-72
2022/04/04 09:32:42;;;;;;;11.57;5.45;;;;;;;0.76;64.90;95567.81;5088912;28;20114;-73
2022/04/04 09:35:10;;;;;;;6.93;3.97;;;;;;;0.96;60.42;95561.75;5072989;28;20119;-73
2022/04/04 09:37:38;;;;;;;8.48;5.15;;;;;;;0.93;59.24;95556.97;5101881;28;20040;-73
2022/04/04 09:40:16;;;;;;;9.77;5.50;;;;;;;0.82;62.37;95556.63;5107085;28;20036;-73
2022/04/04 09:42:56;;;;;;;9.30;5.47;;;;;;;0.90;62.79;95552.22;5095746;28;20412;-73
2022/04/04 09:45:24;;;;;;;7.18;4.00;;;;;;;1.11;60.71;95549.31;5107866;28;20044;-73
2022/04/04 09:48:08;;;;;;;10.43;4.82;;;;;;;1.49;61.35;95551.03;5108301;28;20040;-73
2022/04/04 09:50:50;;;;;;;12.73;5.15;;;;;;;1.54;62.16;95553.81;5088370;28;20055;-72
2022/04/04 09:53:20;;;;;;;11.02;5.38;;;;;;;1.43;61.18;95551.88;5105529;28;20039;-73
2022/04/04 09:55:48;;;;;;;10.18;5.53;;;;;;;1.32;61.84;95539.59;5107543;28;20036;-73
2022/04/04 09:58:19;;;;;;;13.20;6.25;;;;;;;1.38;61.94;95531.00;5092884;28;20071;-73
2022/04/04 10:00:46;;;;;;;9.00;4.97;;;;;;;1.83;60.99;95543.78;5094131;28;20040;-73
2022/04/04 10:03:13;;;;;;;8.13;4.85;;;;;;;1.72;60.62;95537.53;5098002;28;20032;-73
2022/04/04 10:05:44;;;;;;;8.73;4.38;;;;;;;1.74;59.56;95526.94;5087689;28;20047;-73
2022/04/04 10:08:15;;;;;;;8.93;5.32;;;;;;;1.90;61.02;95528.97;5108864;28;20039;-73
2022/04/04 10:10:43;;;;;;;9.32;5.28;;;;;;;2.22;61.15;95521.06;5082555;28;20043;-74
2022/04/04 10:13:10;;;;;;;10.43;5.40;;;;;;;2.73;62.32;95507.88;5105214;28;20052;-72
2022/04/04 10:15:39;;;;;;;9.15;5.28;;;;;;;2.82;59.29;95516.97;5075786;28;20512;-72
2022/04/04 10:18:06;;;;;;;11.52;5.43;;;;;;;2.52;58.46;95512.53;5094306;28;20043;-73
2022/04/04 10:20:32;;;;;;;10.45;5.72;;;;;;;2.53;58.54;95503.75;5098359;28;20035;-74
2022/04/04 10:22:59;;;;;;;13.07;6.38;;;;;;;2.54;61.09;95500.16;5107550;28;20567;-74
2022/04/04 10:25:26;;;;;;;9.75;5.05;;;;;;;2.72;58.96;95501.13;5092789;28;20040;-74
2022/04/04 10:27:52;;;;;;;8.50;5.10;;;;;;;3.10;57.93;95497.41;5092202;28;20056;-74
2022/04/04 10:30:31;;;;;;;10.50;5.97;;;;;;;4.29;56.38;95480.81;5093983;28;20047;-73
2022/04/04 10:32:57;;;;;;;11.45;5.93;;;;;;;4.63;57.60;95474.97;5096076;28;20161;-73
2022/04/04 10:35:25;;;;;;;11.07;5.28;;;;;;;5.05;53.72;95479.09;5079963;28;20036;-72
2022/04/04 10:37:51;;;;;;;11.93;6.00;;;;;;;5.61;54.74;95482.59;5092627;28;20044;-74
2022/04/04 10:40:24;;;;;;;10.30;5.63;;;;;;;5.52;52.71;95465.75;5102530;28;20405;-74
2022/04/04 10:43:07;;;;;;;13.57;7.28;;;;;;;6.20;51.08;95463.06;5092582;28;20656;-72
2022/04/04 10:45:52;;;;;;;13.30;6.93;;;;;;;6.05;51.28;95455.84;5076103;28;20809;-71
2022/04/04 10:48:19;;;;;;;11.63;7.07;;;;;;;6.74;51.78;95442.25;5102829;28;20113;-72
2022/04/04 10:50:45;;;;;;;11.75;7.53;;;;;;;6.74;49.84;95447.47;5085143;28;20096;-71
2022/04/04 10:53:11;;;;;;;14.50;8.10;;;;;;;6.72;51.22;95444.34;5091138;28;20047;-72
2022/04/04 10:55:36;;;;;;;14.18;8.73;;;;;;;6.78;50.85;95442.56;5074233;28;20044;-72
2022/04/04 10:58:12;;;;;;;16.80;8.20;;;;;;;6.61;50.38;95437.41;5096741;28;20059;-72
2022/04/04 11:00:56;;;;;;;16.38;8.55;;;;;;;6.48;52.08;95429.94;5101566;28;20502;-73
2022/04/04 11:03:41;;;;;;;14.05;8.20;;;;;;;6.44;53.41;95431.44;5093482;28;20482;-75
2022/04/04 11:09:04;;;;;;;21.40;10.10;;;;;;;7.01;55.84;95428.38;5103534;27;20048;-74
2022/04/04 11:12:12;;;;;;;17.63;9.57;;;;;;;6.66;51.68;95413.91;5082716;28;20047;-73
2022/04/04 11:14:39;;;;;;;18.20;9.43;;;;;;;7.21;50.30;95419.13;5026303;28;20069;-73
2022/04/04 11:17:56;;;;;;;20.30;9.00;;;;;;;7.53;47.40;95415.66;5088416;28;20420;-74
2022/04/04 11:20:10;;;;;;;18.38;9.55;;;;;;;8.20;48.60;95402.94;5094792;28;20056;-73
2022/04/04 11:22:46;;;;;;;21.20;9.88;;;;;;;7.67;47.85;95406.38;5103859;28;20084;-73
2022/04/04 11:25:17;;;;;;;18.90;9.55;;;;;;;7.75;50.05;95397.22;5078691;28;20075;-74
2022/04/04 11:27:48;;;;;;;19.77;9.98;;;;;;;7.48;49.01;95392.09;5086573;27;20519;-72
2022/04/04 11:30:20;;;;;;;19.92;10.73;;;;;;;7.58;46.84;95392.16;5118735;27;20031;-73